Time,TemperatureF,DewpointF,PressureIn,WindDirection,WindDirectionDegrees,WindSpeedMPH,WindSpeedGustMPH,Humidity,HourlyPrecipIn,Conditions,Clouds,dailyrainin,SoftwareType,DateUTC
2013-05-20 00:09:00,57.7,57.5,29.91,SSE,157,0.0,-999.0,99,-99.99,,,0.00,Acu-Link.com,2013-05-20 04:09:00,
2013-05-20 00:24:00,57.7,57.5,29.91,South,180,0.0,-999.0,99,-99.99,,,0.00,Acu-Link.com,2013-05-20 04:24:00,
2013-05-20 00:39:00,57.7,57.5,29.91,NE,45,0.0,-999.0,99,-99.99,,,0.00,Acu-Link.com,2013-05-20 04:39:00,
2013-05-20 00:55:00,57.9,57.6,29.92,ESE,112,0.0,-999.0,99,-99.99,,,0.00,Acu-Link.com,2013-05-20 04:55:00,
2013-05-20 01:10:00,57.6,57.3,29.91,West,270,0.0,-999.0,99,-99.99,,,0.00,Acu-Link.com,2013-05-20 05:10:00,
2013-05-20 01:25:00,57.6,57.3,29.92,West,270,0.0,-999.0,99,-99.99,,,0.00,Acu-Link.com,2013-05-20 05:25:00,
2013-05-20 01:40:00,57.6,57.3,29.91,SSE,157,0.0,-999.0,99,-99.99,,,0.00,Acu-Link.com,2013-05-20 05:40:00,
2013-05-20 01:55:00,57.2,56.9,29.91,South,180,0.0,-999.0,99,-99.99,,,0.00,Acu-Link.com,2013-05-20 05:55:00,
2013-05-20 02:11:00,57.0,56.7,29.91,WSW,247,0.0,-999.0,99,-99.99,,,0.00,Acu-Link.com,2013-05-20 06:11:00,
2013-05-20 02:26:00,57.2,56.9,29.91,SSE,157,0.0,-999.0,99,-99.99,,,0.00,Acu-Link.com,2013-05-20 06:26:00,
2013-05-20 02:41:00,57.2,56.9,29.91,South,180,0.0,-999.0,99,-99.99,,,0.00,Acu-Link.com,2013-05-20 06:41:00,
2013-05-20 02:56:00,57.4,57.1,29.91,SSW,202,0.0,-999.0,99,-99.99,,,0.00,Acu-Link.com,2013-05-20 06:56:00,
2013-05-20 03:11:00,57.4,57.1,29.91,East,90,0.0,-999.0,99,-99.99,,,0.00,Acu-Link.com,2013-05-20 07:11:00,
2013-05-20 03:27:00,58.1,57.8,29.91,SSW,202,0.0,-999.0,99,-99.99,,,0.00,Acu-Link.com,2013-05-20 07:27:00,
2013-05-20 03:42:00,58.1,57.8,29.91,SSE,157,0.0,-999.0,99,-99.99,,,0.00,Acu-Link.com,2013-05-20 07:42:00,
2013-05-20 03:57:00,58.1,57.8,29.91,SSE,157,0.0,-999.0,99,-99.99,,,0.00,Acu-Link.com,2013-05-20 07:57:00,
2013-05-20 04:13:00,58.1,57.8,29.91,WSW,247,0.0,-999.0,99,-99.99,,,0.00,Acu-Link.com,2013-05-20 08:13:00,
2013-05-20 04:29:00,58.1,57.8,29.91,SSW,202,0.0,-999.0,99,-99.99,,,0.00,Acu-Link.com,2013-05-20 08:29:00,
2013-05-20 04:44:00,58.1,57.8,29.92,NNE,22,0.0,-999.0,99,-99.99,,,0.00,Acu-Link.com,2013-05-20 08:44:00,
2013-05-20 04:59:00,58.1,57.8,29.92,SSE,157,0.0,-999.0,99,-99.99,,,0.00,Acu-Link.com,2013-05-20 08:59:00,
2013-05-20 05:14:00,57.9,57.6,29.91,SW,225,0.0,-999.0,99,-99.99,,,0.00,Acu-Link.com,2013-05-20 09:14:00,
2013-05-20 05:29:00,57.4,57.1,29.90,West,270,0.0,-999.0,99,-99.99,,,0.00,Acu-Link.com,2013-05-20 09:29:00,
2013-05-20 05:44:00,57.2,56.9,29.91,SSW,202,0.0,-999.0,99,-99.99,,,0.00,Acu-Link.com,2013-05-20 09:44:00,
2013-05-20 05:59:00,56.7,56.4,29.91,West,270,0.0,-999.0,99,-99.99,,,0.00,Acu-Link.com,2013-05-20 09:59:00,
2013-05-20 06:15:00,56.5,56.2,29.91,West,270,0.0,-999.0,99,-99.99,,,0.00,Acu-Link.com,2013-05-20 10:15:00,
2013-05-20 06:30:00,55.9,55.7,29.92,NW,315,0.0,-999.0,99,-99.99,,,0.00,Acu-Link.com,2013-05-20 10:30:00,
2013-05-20 06:45:00,56.3,56.0,29.92,West,270,0.0,-999.0,99,-99.99,,,0.00,Acu-Link.com,2013-05-20 10:45:00,
2013-05-20 07:00:00,56.3,56.0,29.92,ESE,112,0.0,-999.0,99,-99.99,,,0.00,Acu-Link.com,2013-05-20 11:00:00,
2013-05-20 07:15:00,56.5,56.2,29.93,ENE,67,0.0,-999.0,99,-99.99,,,0.00,Acu-Link.com,2013-05-20 11:15:00,
2013-05-20 07:31:00,57.4,57.1,29.94,SSE,157,0.0,-999.0,99,-99.99,,,0.00,Acu-Link.com,2013-05-20 11:31:00,
2013-05-20 07:46:00,57.9,57.4,29.94,ENE,67,0.0,-999.0,98,-99.99,,,0.00,Acu-Link.com,2013-05-20 11:46:00,
2013-05-20 08:01:00,58.8,58.3,29.94,ESE,112,0.0,-999.0,98,-99.99,,,0.00,Acu-Link.com,2013-05-20 12:01:00,
2013-05-20 08:16:00,59.5,59.0,29.95,ENE,67,0.0,-999.0,98,-99.99,,,0.00,Acu-Link.com,2013-05-20 12:16:00,
2013-05-20 08:31:00,62.1,61.5,29.95,ENE,67,0.0,-999.0,98,-99.99,,,0.00,Acu-Link.com,2013-05-20 12:31:00,
2013-05-20 08:47:00,63.7,61.6,29.94,East,90,0.0,-999.0,93,-99.99,,,0.00,Acu-Link.com,2013-05-20 12:47:00,
2013-05-20 09:02:00,66.6,63.5,29.95,ENE,67,0.0,-999.0,90,-99.99,,,0.00,Acu-Link.com,2013-05-20 13:02:00,
2013-05-20 09:17:00,70.9,65.5,29.95,ESE,112,0.0,-999.0,83,-99.99,,,0.00,Acu-Link.com,2013-05-20 13:17:00,
2013-05-20 09:32:00,75.2,67.1,29.95,East,90,0.0,-999.0,76,-99.99,,,0.00,Acu-Link.com,2013-05-20 13:32:00,
2013-05-20 09:47:00,77.5,67.4,29.95,East,90,2.7,-999.0,71,-99.99,,,0.00,Acu-Link.com,2013-05-20 13:47:00,
2013-05-20 10:03:00,79.7,67.3,29.95,NNE,22,0.0,-999.0,66,-99.99,,,0.00,Acu-Link.com,2013-05-20 14:03:00,
2013-05-20 10:18:00,83.8,67.0,29.95,ENE,67,1.6,-999.0,57,-99.99,,,0.00,Acu-Link.com,2013-05-20 14:18:00,
2013-05-20 10:33:00,73.9,61.8,29.95,West,270,0.0,-999.0,66,-99.99,,,0.00,Acu-Link.com,2013-05-20 14:33:00,
2013-05-20 10:48:00,74.1,64.9,29.95,East,90,0.0,-999.0,73,-99.99,,,0.00,Acu-Link.com,2013-05-20 14:48:00,
2013-05-20 11:04:00,74.7,65.4,29.95,East,90,2.2,-999.0,73,-99.99,,,0.00,Acu-Link.com,2013-05-20 15:04:00,
2013-05-20 11:19:00,75.9,65.0,29.95,ENE,67,0.0,-999.0,69,-99.99,,,0.00,Acu-Link.com,2013-05-20 15:19:00,
2013-05-20 11:34:00,77.4,64.7,29.95,North,0,2.2,-999.0,65,-99.99,,,0.00,Acu-Link.com,2013-05-20 15:34:00,
2013-05-20 11:49:00,77.2,65.8,29.95,ESE,112,5.1,-999.0,68,-99.99,,,0.00,Acu-Link.com,2013-05-20 15:49:00,
2013-05-20 12:04:00,77.9,65.2,29.95,ESE,112,2.7,-999.0,65,-99.99,,,0.00,Acu-Link.com,2013-05-20 16:04:00,
2013-05-20 12:20:00,78.1,65.8,29.95,NE,45,3.1,-999.0,66,-99.99,,,0.00,Acu-Link.com,2013-05-20 16:20:00,
2013-05-20 15:49:00,82.0,66.8,29.89,ENE,67,2.7,-999.0,60,-99.99,,,0.00,Acu-Link.com,2013-05-20 19:49:00,
2013-05-20 16:04:00,82.9,66.1,29.89,ESE,112,2.7,-999.0,57,-99.99,,,0.00,Acu-Link.com,2013-05-20 20:04:00,
2013-05-20 16:19:00,80.4,65.7,29.88,North,0,6.3,-999.0,61,-99.99,,,0.00,Acu-Link.com,2013-05-20 20:19:00,
2013-05-20 16:34:00,81.5,66.7,29.88,NNE,22,2.7,-999.0,61,-99.99,,,0.00,Acu-Link.com,2013-05-20 20:34:00,
2013-05-20 16:49:00,83.1,64.2,29.88,NE,45,1.1,-999.0,53,-99.99,,,0.00,Acu-Link.com,2013-05-20 20:49:00,
2013-05-20 17:05:00,81.0,63.8,29.88,NE,45,1.6,-999.0,56,-99.99,,,0.00,Acu-Link.com,2013-05-20 21:05:00,
2013-05-20 17:20:00,80.2,64.1,29.87,West,270,1.6,-999.0,58,-99.99,,,0.00,Acu-Link.com,2013-05-20 21:20:00,
2013-05-20 17:35:00,81.1,67.3,29.88,East,90,3.1,-999.0,63,-99.99,,,0.00,Acu-Link.com,2013-05-20 21:35:00,
2013-05-20 17:50:00,80.4,68.9,29.89,East,90,1.6,-999.0,68,-99.99,,,0.00,Acu-Link.com,2013-05-20 21:50:00,
2013-05-20 18:06:00,82.6,67.7,29.88,North,0,1.1,-999.0,61,-99.99,,,0.00,Acu-Link.com,2013-05-20 22:06:00,
2013-05-20 18:21:00,81.5,67.7,29.89,SSE,157,2.2,-999.0,63,-99.99,,,0.00,Acu-Link.com,2013-05-20 22:21:00,
2013-05-20 18:36:00,78.3,67.7,29.88,NNE,22,5.1,-999.0,70,-99.99,,,0.00,Acu-Link.com,2013-05-20 22:36:00,
2013-05-20 18:51:00,77.7,68.8,29.88,SSE,157,2.2,-999.0,74,-99.99,,,0.00,Acu-Link.com,2013-05-20 22:51:00,
2013-05-20 19:06:00,76.8,67.9,29.88,NNE,22,1.6,-999.0,74,-99.99,,,0.00,Acu-Link.com,2013-05-20 23:06:00,
2013-05-20 19:22:00,76.6,68.5,29.88,North,0,1.1,-999.0,76,-99.99,,,0.00,Acu-Link.com,2013-05-20 23:22:00,
2013-05-20 19:37:00,75.9,68.2,29.88,ENE,67,1.1,-999.0,77,-99.99,,,0.00,Acu-Link.com,2013-05-20 23:37:00,
2013-05-20 19:52:00,75.0,68.1,29.89,WNW,292,1.6,-999.0,79,-99.99,,,0.00,Acu-Link.com,2013-05-20 23:52:00,
2013-05-20 20:07:00,73.9,68.1,29.89,SSW,202,0.0,-999.0,82,-99.99,,,0.00,Acu-Link.com,2013-05-21 00:07:00,
2013-05-20 20:22:00,73.2,68.1,29.88,WSW,247,0.0,-999.0,84,-99.99,,,0.00,Acu-Link.com,2013-05-21 00:22:00,
2013-05-20 20:38:00,72.1,67.4,29.88,West,270,1.6,-999.0,85,-99.99,,,0.00,Acu-Link.com,2013-05-21 00:38:00,
2013-05-20 20:53:00,70.5,66.5,29.88,WNW,292,2.2,-999.0,87,-99.99,,,0.00,Acu-Link.com,2013-05-21 00:53:00,
2013-05-20 21:08:00,70.0,66.3,29.88,WNW,292,0.0,-999.0,88,-99.99,,,0.00,Acu-Link.com,2013-05-21 01:08:00,
2013-05-20 21:23:00,69.1,65.7,29.88,WSW,247,0.0,-999.0,89,-99.99,,,0.00,Acu-Link.com,2013-05-21 01:23:00,
2013-05-20 21:38:00,68.2,65.4,29.88,West,270,0.0,-999.0,91,-99.99,,,0.00,Acu-Link.com,2013-05-21 01:38:00,
2013-05-20 21:54:00,67.8,65.1,29.89,NNW,337,0.0,-999.0,91,-99.99,,,0.00,Acu-Link.com,2013-05-21 01:54:00,
2013-05-20 22:09:00,67.5,65.4,29.89,West,270,0.0,-999.0,93,-99.99,,,0.00,Acu-Link.com,2013-05-21 02:09:00,
2013-05-20 22:24:00,67.1,65.0,29.89,West,270,0.0,-999.0,93,-99.99,,,0.00,Acu-Link.com,2013-05-21 02:24:00,
2013-05-20 22:39:00,66.7,64.6,29.90,NW,315,0.0,-999.0,93,-99.99,,,0.00,Acu-Link.com,2013-05-21 02:39:00,
2013-05-20 22:55:00,66.4,64.3,29.91,West,270,0.0,-999.0,93,-99.99,,,0.00,Acu-Link.com,2013-05-21 02:55:00,
2013-05-20 23:10:00,66.2,64.4,29.91,SSW,202,0.0,-999.0,94,-99.99,,,0.00,Acu-Link.com,2013-05-21 03:10:00,
2013-05-20 23:25:00,66.0,64.2,29.91,SW,225,0.0,-999.0,94,-99.99,,,0.00,Acu-Link.com,2013-05-21 03:25:00,
2013-05-20 23:40:00,66.0,64.5,29.91,West,270,0.0,-999.0,95,-99.99,,,0.00,Acu-Link.com,2013-05-21 03:40:00,
2013-05-20 23:55:00,65.7,64.2,29.90,SSW,202,0.0,-999.0,95,-99.99,,,0.00,Acu-Link.com,2013-05-21 03:55:00,